createdAt,value
2022-08-21T00:01:37.786Z,95966.56
2022-08-21T00:04:08.735Z,95954.13
2022-08-21T00:06:36.361Z,95945.38
2022-08-21T00:09:06.692Z,95945.72
2022-08-21T00:11:36.135Z,95955.75
2022-08-21T00:14:04.574Z,95955.53
2022-08-21T00:16:31.400Z,95953.25
2022-08-21T00:18:58.187Z,95946.56
2022-08-21T00:21:26.214Z,95944.28
2022-08-21T00:23:53.263Z,95951.41
2022-08-21T00:26:20.140Z,95949.09
2022-08-21T00:28:47.116Z,95949.91
2022-08-21T00:31:13.863Z,95950.00
2022-08-21T00:33:40.474Z,95945.19
2022-08-21T00:36:07.329Z,95945.41
2022-08-21T00:38:34.095Z,95942.78
2022-08-21T00:41:32.225Z,95938.75
2022-08-21T00:43:52.317Z,95941.75
2022-08-21T00:46:18.979Z,95945.66
2022-08-21T00:48:45.589Z,95950.72
2022-08-21T00:51:16.969Z,95948.78
2022-08-21T00:53:46.075Z,95940.59
2022-08-21T00:56:22.296Z,95943.13
2022-08-21T00:58:49.914Z,95949.22
2022-08-21T01:01:21.778Z,95946.56
2022-08-21T01:03:48.906Z,95939.41
2022-08-21T01:06:17.669Z,95940.78
2022-08-21T01:08:47.120Z,95943.91
2022-08-21T01:11:15.859Z,95938.59
2022-08-21T01:13:47.153Z,95936.41
2022-08-21T01:16:17.965Z,95941.59
2022-08-21T01:18:46.214Z,95941.03
2022-08-21T01:21:21.990Z,95930.78
2022-08-21T01:23:51.469Z,95935.13
2022-08-21T01:26:21.841Z,95933.81
2022-08-21T01:29:00.865Z,95929.56
2022-08-21T01:31:28.951Z,95927.38
2022-08-21T01:33:57.145Z,95936.22
2022-08-21T01:36:24.832Z,95929.19
2022-08-21T01:38:51.686Z,95933.31
2022-08-21T01:41:18.965Z,95924.91
2022-08-21T01:43:46.146Z,95914.69
2022-08-21T01:46:13.839Z,95927.38
2022-08-21T01:48:41.437Z,95921.63
2022-08-21T01:51:08.873Z,95923.03
2022-08-21T01:53:37.686Z,95912.69
2022-08-21T01:56:12.453Z,95917.31
2022-08-21T01:58:42.668Z,95915.59
2022-08-21T02:01:10.581Z,95911.09
2022-08-21T02:03:38.602Z,95920.09
2022-08-21T02:06:07.876Z,95908.00
2022-08-21T02:08:35.430Z,95912.25
2022-08-21T02:11:02.298Z,95914.91
2022-08-21T02:13:28.937Z,95910.44
2022-08-21T02:15:55.544Z,95906.06
2022-08-21T02:18:22.166Z,95904.22
2022-08-21T02:20:55.287Z,95907.13
2022-08-21T02:23:27.317Z,95899.88
2022-08-21T02:26:02.638Z,95897.81
2022-08-21T02:28:30.834Z,95900.06
2022-08-21T02:30:57.665Z,95896.41
2022-08-21T02:33:26.967Z,95892.25
2022-08-21T02:35:54.124Z,95888.47
2022-08-21T02:38:25.041Z,95888.09
2022-08-21T02:40:53.980Z,95887.41
2022-08-21T02:43:23.310Z,95887.53
2022-08-21T02:45:51.341Z,95892.47
2022-08-21T02:48:21.477Z,95888.31
2022-08-21T02:50:52.739Z,95892.44
2022-08-21T02:53:19.717Z,95897.16
2022-08-21T02:55:48.618Z,95893.94
2022-08-21T02:58:18.922Z,95900.03
2022-08-21T03:00:45.880Z,95895.44
2022-08-21T03:03:15.499Z,95901.09
2022-08-21T03:05:43.047Z,95900.97
2022-08-21T03:08:11.918Z,95901.91
2022-08-21T03:10:45.526Z,95900.06
2022-08-21T03:13:12.997Z,95902.34
2022-08-21T03:15:41.029Z,95898.69
2022-08-21T03:18:08.599Z,95897.28
2022-08-21T03:20:36.517Z,95891.53
2022-08-21T03:23:04.436Z,95894.84
2022-08-21T03:25:40.651Z,95891.97
2022-08-21T03:28:13.218Z,95889.09
2022-08-21T03:30:44.415Z,95889.44
2022-08-21T03:33:13.252Z,95907.34
2022-08-21T03:35:47.868Z,95898.59
2022-08-21T03:38:14.505Z,95899.88
2022-08-21T03:40:43.079Z,95910.25
2022-08-21T03:43:10.592Z,95901.75
2022-08-21T03:45:38.289Z,95900.03
2022-08-21T03:48:06.322Z,95900.84
2022-08-21T03:50:40.756Z,95901.09
2022-08-21T03:53:17.014Z,95889.00
2022-08-21T03:55:46.757Z,95891.91
2022-08-21T03:58:16.792Z,95908.34
2022-08-21T04:00:44.884Z,95900.06
2022-08-21T04:03:11.476Z,95905.59
2022-08-21T04:05:38.550Z,95899.25
2022-08-21T04:08:06.592Z,95903.13
2022-08-21T04:10:37.518Z,95902.56
2022-08-21T04:13:05.334Z,95893.16
2022-08-21T04:15:32.350Z,95903.94
2022-08-21T04:17:59.958Z,95911.78
2022-08-21T04:20:27.527Z,95906.53
2022-08-21T04:22:54.612Z,95906.75
2022-08-21T04:25:23.592Z,95909.88
2022-08-21T04:27:50.611Z,95909.41
2022-08-21T04:30:17.713Z,95906.75
2022-08-21T04:32:46.748Z,95910.81
2022-08-21T04:35:15.528Z,95913.56
2022-08-21T04:37:42.439Z,95911.72
2022-08-21T04:40:11.829Z,95921.59
2022-08-21T04:42:50.657Z,95923.44
2022-08-21T04:45:21.610Z,95920.09
2022-08-21T04:47:52.671Z,95924.56
2022-08-21T04:50:23.375Z,95921.72
2022-08-21T04:52:50.138Z,95916.78
2022-08-21T04:55:19.724Z,95915.97
2022-08-21T04:57:49.298Z,95921.72
2022-08-21T05:00:19.644Z,95915.97
2022-08-21T05:02:48.734Z,95922.16
2022-08-21T05:05:17.006Z,95927.00
2022-08-21T05:07:45.583Z,95915.59
2022-08-21T05:10:13.898Z,95917.66
2022-08-21T05:12:42.994Z,95919.97
2022-08-21T05:15:13.438Z,95920.53
2022-08-21T05:17:42.015Z,95915.03
2022-08-21T05:20:10.906Z,95921.94
2022-08-21T05:22:37.550Z,95923.34
2022-08-21T05:25:10.159Z,95915.16
2022-08-21T05:27:38.077Z,95923.69
2022-08-21T05:30:09.212Z,95930.94
2022-08-21T05:32:36.885Z,95923.22
2022-08-21T05:35:06.689Z,95929.78
2022-08-21T05:37:33.717Z,95930.34
2022-08-21T05:40:21.964Z,95931.56
2022-08-21T05:42:54.937Z,95928.47
2022-08-21T05:45:43.537Z,95914.69
2022-08-21T05:48:23.257Z,95912.19
2022-08-21T05:50:51.565Z,95916.41
2022-08-21T05:53:19.719Z,95910.63
2022-08-21T05:55:47.356Z,95921.81
2022-08-21T05:58:15.990Z,95911.88
2022-08-21T06:00:43.741Z,95911.59
2022-08-21T06:03:17.923Z,95907.44
2022-08-21T06:05:44.865Z,95917.25
2022-08-21T06:08:12.169Z,95917.72
2022-08-21T06:10:39.325Z,95909.78
2022-08-21T06:13:06.443Z,95910.53
2022-08-21T06:15:33.834Z,95902.94
2022-08-21T06:18:00.636Z,95907.16
2022-08-21T06:20:27.787Z,95912.28
2022-08-21T06:22:54.480Z,95907.50
2022-08-21T06:25:21.385Z,95904.72
2022-08-21T06:27:48.149Z,95903.13
2022-08-21T06:30:15.115Z,95906.75
2022-08-21T06:32:41.788Z,95901.38
2022-08-21T06:35:08.996Z,95897.81
2022-08-21T06:37:35.610Z,95900.25
2022-08-21T06:40:04.337Z,95901.03
2022-08-21T06:42:31.120Z,95905.34
2022-08-21T06:44:58.759Z,95900.53
2022-08-21T06:47:25.435Z,95904.19
2022-08-21T06:49:52.039Z,95906.31
2022-08-21T06:52:19.112Z,95911.56
2022-08-21T06:54:45.693Z,95923.22
2022-08-21T06:57:12.380Z,95917.41
2022-08-21T06:59:39.148Z,95921.72
2022-08-21T07:02:05.810Z,95915.69
2022-08-21T07:04:32.396Z,95931.94
2022-08-21T07:06:59.460Z,95923.31
2022-08-21T07:09:26.132Z,95934.88
2022-08-21T07:11:55.880Z,95926.53
2022-08-21T07:14:23.439Z,95930.56
2022-08-21T07:16:51.768Z,95935.66
2022-08-21T07:19:19.282Z,95940.19
2022-08-21T07:21:45.928Z,95931.59
2022-08-21T07:24:12.490Z,95933.00
2022-08-21T07:26:39.544Z,95921.03
2022-08-21T07:29:06.140Z,95925.28
2022-08-21T07:31:32.986Z,95931.31
2022-08-21T07:33:59.845Z,95926.88
2022-08-21T07:36:26.778Z,95926.03
2022-08-21T07:38:53.511Z,95935.78
2022-08-21T07:41:23.968Z,95932.63
2022-08-21T07:43:52.804Z,95933.44
2022-08-21T07:46:20.497Z,95945.41
2022-08-21T07:48:47.141Z,95933.53
2022-08-21T07:51:16.005Z,95935.69
2022-08-21T07:53:42.635Z,95938.56
2022-08-21T07:56:09.816Z,95939.31
2022-08-21T07:58:36.605Z,95929.69
2022-08-21T08:01:03.424Z,95934.69
2022-08-21T08:03:30.103Z,95933.97
2022-08-21T08:05:57.674Z,95943.44
2022-08-21T08:08:25.542Z,95939.31
2022-08-21T08:10:54.337Z,95924.81
2022-08-21T08:13:20.996Z,95920.66
2022-08-21T08:15:47.592Z,95913.88
2022-08-21T08:18:14.817Z,95917.63
2022-08-21T08:20:42.203Z,95915.78
2022-08-21T08:23:12.255Z,95913.00
2022-08-21T08:25:38.960Z,95911.81
2022-08-21T08:28:16.651Z,95914.78
2022-08-21T08:30:45.529Z,95912.25
2022-08-21T08:33:12.397Z,95913.50
2022-08-21T08:35:39.529Z,95922.31
2022-08-21T08:38:06.744Z,95915.66
2022-08-21T08:41:10.976Z,95919.47
2022-08-21T08:43:37.759Z,95925.06
2022-08-21T08:46:16.612Z,95919.84
2022-08-21T08:48:52.976Z,95919.63
2022-08-21T08:51:27.976Z,95917.97
2022-08-21T08:54:09.405Z,95908.00
2022-08-21T08:56:36.799Z,95916.50
2022-08-21T08:59:18.800Z,95916.31
2022-08-21T09:01:46.180Z,95910.81
2022-08-21T09:04:14.689Z,95911.63
2022-08-21T09:07:07.159Z,95911.81
2022-08-21T09:09:56.896Z,95909.09
2022-08-21T09:12:33.603Z,95908.50
2022-08-21T09:15:45.470Z,95905.50
2022-08-21T09:18:30.332Z,95908.66
2022-08-21T09:21:20.550Z,95909.75
2022-08-21T09:24:11.831Z,95898.91
2022-08-21T09:26:55.488Z,95903.09
2022-08-21T09:29:27.023Z,95906.97
2022-08-21T09:31:54.066Z,95904.69
2022-08-21T09:34:30.110Z,95894.06
2022-08-21T09:36:57.979Z,95893.72
2022-08-21T09:39:28.498Z,95905.56
2022-08-21T09:41:59.255Z,95894.09
2022-08-21T09:44:30.582Z,95898.38
2022-08-21T09:46:57.476Z,95899.69
2022-08-21T09:49:34.895Z,95897.06
2022-08-21T09:52:04.383Z,95893.06
2022-08-21T09:54:38.114Z,95891.06
2022-08-21T09:57:26.155Z,95885.38
2022-08-21T09:59:52.804Z,95890.53
2022-08-21T10:02:45.749Z,95886.97
2022-08-21T10:05:23.829Z,95881.88
2022-08-21T10:07:51.333Z,95886.31
2022-08-21T10:10:25.079Z,95879.56
2022-08-21T10:13:09.915Z,95883.97
2022-08-21T10:15:48.651Z,95881.53
2022-08-21T10:18:21.646Z,95889.94
2022-08-21T10:21:29.549Z,95881.16
2022-08-21T10:24:09.789Z,95889.78
2022-08-21T10:26:46.453Z,95880.69
2022-08-21T10:29:45.046Z,95881.81
2022-08-21T10:32:48.654Z,95871.94
2022-08-21T10:35:33.230Z,95875.97
2022-08-21T10:38:46.277Z,95867.50
2022-08-21T10:41:34.678Z,95859.03
2022-08-21T10:44:01.206Z,95857.13
2022-08-21T10:47:09.256Z,95851.09
2022-08-21T10:49:54.308Z,95854.75
2022-08-21T10:52:53.259Z,95851.19
2022-08-21T10:55:24.549Z,95863.50
2022-08-21T10:58:20.330Z,95851.13
2022-08-21T11:00:49.001Z,95844.75
2022-08-21T11:03:44.567Z,95845.19
2022-08-21T11:06:19.356Z,95840.38
2022-08-21T11:08:52.025Z,95841.59
2022-08-21T11:11:47.037Z,95844.78
2022-08-21T11:14:29.948Z,95839.19
2022-08-21T11:17:17.264Z,95840.34
2022-08-21T11:19:55.791Z,95846.72
2022-08-21T11:22:51.374Z,95840.72
2022-08-21T11:25:36.442Z,95830.72
2022-08-21T11:28:16.661Z,95831.47
2022-08-21T11:30:45.902Z,95825.47
2022-08-21T11:33:42.585Z,95833.53
2022-08-21T11:36:35.101Z,95830.34
2022-08-21T11:39:13.930Z,95834.25
2022-08-21T11:41:50.652Z,95827.75
2022-08-21T11:44:30.342Z,95830.00
2022-08-21T11:47:10.064Z,95840.22
2022-08-21T11:49:55.273Z,95833.13
2022-08-21T11:52:27.834Z,95834.53
2022-08-21T11:55:23.605Z,95839.09
2022-08-21T11:57:53.426Z,95828.69
2022-08-21T12:00:26.223Z,95828.88
2022-08-21T12:02:57.076Z,95815.78
2022-08-21T12:05:44.954Z,95823.59
2022-08-21T12:08:16.049Z,95808.22
2022-08-21T12:10:59.457Z,95813.47
2022-08-21T12:13:39.885Z,95805.84
2022-08-21T12:16:29.001Z,95807.56
2022-08-21T12:19:09.005Z,95807.13
2022-08-21T12:21:50.128Z,95796.53
2022-08-21T12:24:19.558Z,95796.75
2022-08-21T12:26:48.975Z,95792.78
2022-08-21T12:29:25.143Z,95791.53
2022-08-21T12:32:07.011Z,95784.31
2022-08-21T12:34:38.664Z,95797.84
2022-08-21T12:37:21.207Z,95789.72
2022-08-21T12:39:50.672Z,95791.22
2022-08-21T12:42:25.961Z,95784.16
2022-08-21T12:44:56.567Z,95789.75
2022-08-21T12:47:33.002Z,95790.16
2022-08-21T12:50:08.319Z,95793.22
2022-08-21T12:52:58.201Z,95790.34
2022-08-21T12:55:32.759Z,95785.94
2022-08-21T12:58:00.026Z,95785.03
2022-08-21T13:00:29.127Z,95788.38
2022-08-21T13:02:57.444Z,95787.25
2022-08-21T13:05:35.111Z,95785.75
2022-08-21T13:08:05.918Z,95789.16
2022-08-21T13:10:35.366Z,95777.38
2022-08-21T13:13:25.003Z,95787.81
2022-08-21T13:16:05.479Z,95794.28
2022-08-21T13:18:35.243Z,95781.13
2022-08-21T13:21:12.737Z,95777.09
2022-08-21T13:23:39.881Z,95776.31
2022-08-21T13:26:19.038Z,95784.13
2022-08-21T13:28:48.479Z,95774.72
2022-08-21T13:31:27.733Z,95765.97
2022-08-21T13:33:56.209Z,95772.31
2022-08-21T13:36:30.434Z,95767.91
2022-08-21T13:38:57.447Z,95776.13
2022-08-21T13:41:36.522Z,95775.06
2022-08-21T13:44:18.469Z,95773.63
2022-08-21T13:46:49.678Z,95760.75
2022-08-21T13:49:19.724Z,95762.19
2022-08-21T13:51:47.675Z,95761.53
2022-08-21T13:54:25.808Z,95773.41
2022-08-21T13:56:52.914Z,95763.84
2022-08-21T13:59:35.559Z,95760.41
2022-08-21T14:02:02.137Z,95759.19
2022-08-21T14:04:36.005Z,95754.09
2022-08-21T14:07:15.147Z,95760.13
2022-08-21T14:09:44.066Z,95751.78
2022-08-21T14:12:33.559Z,95757.13
2022-08-21T14:15:06.286Z,95759.88
2022-08-21T14:17:37.692Z,95760.00
2022-08-21T14:20:07.767Z,95754.22
2022-08-21T14:22:47.822Z,95751.00
2022-08-21T14:25:25.515Z,95748.06
2022-08-21T14:27:55.266Z,95755.47
2022-08-21T14:30:29.137Z,95749.22
2022-08-21T14:32:57.060Z,95751.94
2022-08-21T14:35:24.590Z,95747.53
2022-08-21T14:37:51.615Z,95749.53
2022-08-21T14:40:19.656Z,95748.41
2022-08-21T14:42:47.469Z,95742.25
2022-08-21T14:45:29.378Z,95753.78
2022-08-21T14:47:57.893Z,95760.72
2022-08-21T14:50:24.916Z,95747.69
2022-08-21T14:52:55.020Z,95748.72
2022-08-21T14:55:21.958Z,95751.16
2022-08-21T14:57:50.931Z,95749.59
2022-08-21T15:00:20.863Z,95747.84
2022-08-21T15:02:47.559Z,95756.06
2022-08-21T15:05:16.757Z,95745.63
2022-08-21T15:07:53.447Z,95750.59
2022-08-21T15:10:20.132Z,95751.47
2022-08-21T15:12:46.778Z,95751.63
2022-08-21T15:15:13.417Z,95752.59
2022-08-21T15:17:48.109Z,95750.81
2022-08-21T15:20:15.731Z,95748.88
2022-08-21T15:22:47.679Z,95744.00
2022-08-21T15:25:14.910Z,95745.66
2022-08-21T15:27:41.612Z,95738.00
2022-08-21T15:30:08.770Z,95736.34
2022-08-21T15:32:35.342Z,95742.03
2022-08-21T15:35:03.387Z,95744.38
2022-08-21T15:37:30.266Z,95745.13
2022-08-21T15:39:57.294Z,95742.72
2022-08-21T15:42:25.549Z,95733.00
2022-08-21T15:44:53.166Z,95733.53
2022-08-21T15:47:23.409Z,95734.16
2022-08-21T15:49:50.037Z,95732.63
2022-08-21T15:52:20.341Z,95732.84
2022-08-21T15:54:47.603Z,95729.84
2022-08-21T15:57:17.620Z,95733.25
2022-08-21T15:59:50.215Z,95728.16
2022-08-21T16:02:26.241Z,95723.25
2022-08-21T16:04:53.062Z,95720.25
2022-08-21T16:07:19.809Z,95726.06
2022-08-21T16:09:46.599Z,95726.41
2022-08-21T16:12:24.114Z,95730.91
2022-08-21T16:14:53.127Z,95730.41
2022-08-21T16:17:20.185Z,95726.97
2022-08-21T16:19:47.266Z,95726.81
2022-08-21T16:22:13.930Z,95732.31
2022-08-21T16:24:40.981Z,95732.69
2022-08-21T16:27:09.019Z,95730.56
2022-08-21T16:29:37.459Z,95721.16
2022-08-21T16:32:05.895Z,95725.28
2022-08-21T16:34:33.099Z,95729.00
2022-08-21T16:37:00.144Z,95723.47
2022-08-21T16:39:26.948Z,95731.06
2022-08-21T16:41:54.315Z,95723.06
2022-08-21T16:44:23.037Z,95725.63
2022-08-21T16:46:50.469Z,95730.44
2022-08-21T16:49:17.150Z,95738.88
2022-08-21T16:51:44.093Z,95722.50
2022-08-21T16:54:11.835Z,95731.34
2022-08-21T16:56:41.359Z,95733.38
2022-08-21T16:59:11.853Z,95734.56
2022-08-21T17:01:39.378Z,95741.78
2022-08-21T17:04:06.713Z,95721.84
2022-08-21T17:06:33.516Z,95725.84
2022-08-21T17:09:01.283Z,95736.75
2022-08-21T17:11:38.460Z,95731.56
2022-08-21T17:14:12.365Z,95726.84
2022-08-21T17:16:40.950Z,95724.41
2022-08-21T17:19:08.322Z,95725.63
2022-08-21T17:21:35.439Z,95718.06
2022-08-21T17:24:02.276Z,95720.44
2022-08-21T17:26:28.917Z,95718.47
2022-08-21T17:28:55.593Z,95724.44
2022-08-21T17:31:22.731Z,95734.41
2022-08-21T17:33:52.823Z,95730.84
2022-08-21T17:36:20.163Z,95727.66
2022-08-21T17:38:46.969Z,95727.66
2022-08-21T17:41:14.373Z,95720.50
2022-08-21T17:43:41.469Z,95718.91
2022-08-21T17:46:10.286Z,95716.50
2022-08-21T17:48:37.021Z,95718.50
2022-08-21T17:51:04.220Z,95719.31
2022-08-21T17:53:31.142Z,95716.53
2022-08-21T17:55:57.900Z,95732.50
2022-08-21T17:58:24.642Z,95730.91
2022-08-21T18:00:51.356Z,95728.53
2022-08-21T18:03:22.885Z,95727.69
2022-08-21T18:05:51.739Z,95732.09
2022-08-21T18:08:18.572Z,95723.31
2022-08-21T18:10:48.354Z,95734.47
2022-08-21T18:13:24.519Z,95722.91
2022-08-21T18:15:54.039Z,95724.09
2022-08-21T18:18:21.591Z,95732.47
2022-08-21T18:20:49.462Z,95723.69
2022-08-21T18:23:16.143Z,95721.25
2022-08-21T18:25:50.231Z,95741.56
2022-08-21T18:28:17.749Z,95736.75
2022-08-21T18:30:44.690Z,95729.56
2022-08-21T18:33:14.001Z,95730.72
2022-08-21T18:35:42.268Z,95728.31
2022-08-21T18:38:10.362Z,95734.25
2022-08-21T18:40:39.235Z,95733.03
2022-08-21T18:43:10.041Z,95735.38
2022-08-21T18:45:42.358Z,95735.75
2022-08-21T18:48:11.666Z,95743.31
2022-08-21T18:50:41.730Z,95738.50
2022-08-21T18:53:15.927Z,95746.00
2022-08-21T18:55:55.083Z,95752.72
2022-08-21T18:58:25.635Z,95750.59
2022-08-21T19:00:54.263Z,95753.75
2022-08-21T19:03:23.940Z,95754.88
2022-08-21T19:05:52.305Z,95756.44
2022-08-21T19:08:21.856Z,95754.78
2022-08-21T19:10:52.132Z,95757.97
2022-08-21T19:13:21.882Z,95764.28
2022-08-21T19:15:52.755Z,95764.22
2022-08-21T19:18:27.878Z,95761.00
2022-08-21T19:20:55.216Z,95770.91
2022-08-21T19:23:28.931Z,95763.38
2022-08-21T19:26:00.829Z,95773.72
2022-08-21T19:28:34.472Z,95761.72
2022-08-21T19:31:06.657Z,95770.47
2022-08-21T19:33:39.615Z,95769.09
2022-08-21T19:36:07.965Z,95766.56
2022-08-21T19:38:37.208Z,95773.31
2022-08-21T19:41:07.215Z,95763.75
2022-08-21T19:43:55.654Z,95764.97
2022-08-21T19:46:43.891Z,95762.53
2022-08-21T19:49:16.775Z,95763.63
2022-08-21T19:51:46.465Z,95765.53
2022-08-21T19:54:33.325Z,95769.09
2022-08-21T19:57:04.885Z,95770.63
2022-08-21T19:59:31.582Z,95761.00
2022-08-21T20:01:58.579Z,95770.56
2022-08-21T20:04:25.723Z,95760.13
2022-08-21T20:06:54.675Z,95763.75
2022-08-21T20:09:21.342Z,95766.56
2022-08-21T20:11:51.905Z,95762.53
2022-08-21T20:14:22.276Z,95767.63
2022-08-21T20:16:52.449Z,95764.88
2022-08-21T20:19:19.936Z,95767.34
2022-08-21T20:21:46.742Z,95764.81
2022-08-21T20:24:15.032Z,95769.63
2022-08-21T20:26:48.733Z,95764.44
2022-08-21T20:29:17.446Z,95760.81
2022-08-21T20:31:51.610Z,95754.41
2022-08-21T20:34:18.348Z,95758.28
2022-08-21T20:36:47.451Z,95757.44
2022-08-21T20:39:15.156Z,95750.56
2022-08-21T20:41:44.436Z,95757.22
2022-08-21T20:44:16.671Z,95758.88
2022-08-21T20:46:45.207Z,95761.28
2022-08-21T20:49:19.199Z,95762.03
2022-08-21T20:51:50.750Z,95761.94
2022-08-21T20:54:27.535Z,95765.84
2022-08-21T20:57:04.212Z,95765.47
2022-08-21T20:59:33.586Z,95765.81
2022-08-21T21:02:37.954Z,95768.88
2022-08-21T21:05:28.135Z,95768.50
2022-08-21T21:08:13.086Z,95766.50
2022-08-21T21:11:03.317Z,95756.00
2022-08-21T21:14:04.588Z,95763.47
2022-08-21T21:16:38.946Z,95763.00
2022-08-21T21:19:23.486Z,95764.59
2022-08-21T21:22:02.832Z,95769.41
2022-08-21T21:24:38.074Z,95768.13
2022-08-21T21:27:18.580Z,95763.75
2022-08-21T21:29:58.446Z,95769.16
2022-08-21T21:32:28.565Z,95766.00
2022-08-21T21:34:55.310Z,95766.28
2022-08-21T21:37:29.871Z,95766.66
2022-08-21T21:40:18.312Z,95769.81
2022-08-21T21:43:06.863Z,95768.31
2022-08-21T21:45:42.611Z,95766.34
2022-08-21T21:48:21.231Z,95769.13
2022-08-21T21:50:50.772Z,95781.03
2022-08-21T21:53:42.807Z,95775.41
2022-08-21T21:56:32.566Z,95778.50
2022-08-21T21:59:01.934Z,95785.66
2022-08-21T22:01:40.610Z,95780.00
2022-08-21T22:04:09.992Z,95783.94
2022-08-21T22:06:55.449Z,95784.69
2022-08-21T22:09:42.299Z,95791.63
2022-08-21T22:13:10.252Z,95780.38
2022-08-21T22:15:48.705Z,95787.25
2022-08-21T22:18:19.029Z,95785.53
2022-08-21T22:21:16.344Z,95779.66
2022-08-21T22:23:56.203Z,95775.69
2022-08-21T22:26:33.826Z,95781.38
2022-08-21T22:29:05.429Z,95787.31
2022-08-21T22:31:35.476Z,95793.16
2022-08-21T22:34:17.894Z,95789.38
2022-08-21T22:36:56.408Z,95793.63
2022-08-21T22:39:39.082Z,95794.00
2022-08-21T22:42:11.366Z,95794.38
2022-08-21T22:44:51.169Z,95788.63
2022-08-21T22:47:26.335Z,95793.81
2022-08-21T22:49:54.810Z,95785.38
2022-08-21T22:52:25.135Z,95793.38
2022-08-21T22:54:57.597Z,95783.50
2022-08-21T22:57:34.371Z,95783.94
2022-08-21T23:00:07.885Z,95782.34
2022-08-21T23:02:58.584Z,95782.69
2022-08-21T23:05:34.442Z,95774.06
2022-08-21T23:08:14.428Z,95774.44
2022-08-21T23:10:56.469Z,95772.09
2022-08-21T23:13:23.073Z,95766.47
2022-08-21T23:16:10.642Z,95762.59
2022-08-21T23:19:07.070Z,95763.34
2022-08-21T23:21:41.863Z,95763.66
2022-08-21T23:24:19.719Z,95764.34
2022-08-21T23:27:14.421Z,95769.09
2022-08-21T23:29:56.415Z,95763.13
2022-08-21T23:36:10.680Z,95754.59
2022-08-21T23:39:00.359Z,95751.47
2022-08-21T23:44:31.365Z,95761.63
2022-08-21T23:47:11.559Z,95748.50
2022-08-21T23:49:55.513Z,95750.91
2022-08-21T23:52:48.572Z,95758.78
2022-08-21T23:55:35.147Z,95755.63
2022-08-21T23:58:18.462Z,95757.63
